sensor_id;sensor_type;location;lat;lon;timestamp;pressure;altitude;pressure_sealevel;temperature;humidity
72498;BME280;60522;52.536;5.702;2022-11-02T00:01:25;101398.81;;;19.45;53.92
72498;BME280;60522;52.536;5.702;2022-11-02T00:03:51;101393.34;;;19.45;54.04
72498;BME280;60522;52.536;5.702;2022-11-02T00:06:16;101399.94;;;19.44;53.84
72498;BME280;60522;52.536;5.702;2022-11-02T00:08:42;101396.88;;;19.45;53.83
72498;BME280;60522;52.536;5.702;2022-11-02T00:11:07;101403.91;;;19.46;53.75
72498;BME280;60522;52.536;5.702;2022-11-02T00:13:32;101408.13;;;19.44;53.96
72498;BME280;60522;52.536;5.702;2022-11-02T00:16:03;101399.81;;;19.40;53.81
72498;BME280;60522;52.536;5.702;2022-11-02T00:18:29;101375.63;;;19.38;53.92
72498;BME280;60522;52.536;5.702;2022-11-02T00:20:55;101381.19;;;19.42;53.99
72498;BME280;60522;52.536;5.702;2022-11-02T00:23:21;101364.28;;;19.36;53.87
72498;BME280;60522;52.536;5.702;2022-11-02T00:25:49;101362.59;;;19.32;53.85
72498;BME280;60522;52.536;5.702;2022-11-02T00:28:16;101379.50;;;19.37;53.76
72498;BME280;60522;52.536;5.702;2022-11-02T00:30:42;101370.44;;;19.33;53.71
72498;BME280;60522;52.536;5.702;2022-11-02T00:33:08;101379.94;;;19.39;53.89
72498;BME280;60522;52.536;5.702;2022-11-02T00:35:34;101369.38;;;19.38;53.88
72498;BME280;60522;52.536;5.702;2022-11-02T00:38:00;101367.44;;;19.38;53.85
72498;BME280;60522;52.536;5.702;2022-11-02T00:40:25;101354.78;;;19.30;53.87
72498;BME280;60522;52.536;5.702;2022-11-02T00:42:50;101380.31;;;19.38;54.04
72498;BME280;60522;52.536;5.702;2022-11-02T00:45:16;101373.59;;;19.35;53.87
72498;BME280;60522;52.536;5.702;2022-11-02T00:47:41;101368.59;;;19.37;53.92
72498;BME280;60522;52.536;5.702;2022-11-02T00:50:07;101356.25;;;19.28;53.92
72498;BME280;60522;52.536;5.702;2022-11-02T00:52:32;101367.00;;;19.36;54.08
72498;BME280;60522;52.536;5.702;2022-11-02T00:54:58;101364.28;;;19.36;54.15
72498;BME280;60522;52.536;5.702;2022-11-02T00:57:23;101370.53;;;19.37;54.11
72498;BME280;60522;52.536;5.702;2022-11-02T00:59:49;101366.81;;;19.29;54.13
72498;BME280;60522;52.536;5.702;2022-11-02T01:02:14;101373.59;;;19.35;54.23
72498;BME280;60522;52.536;5.702;2022-11-02T01:04:39;101359.44;;;19.30;54.29
72498;BME280;60522;52.536;5.702;2022-11-02T01:07:05;101368.94;;;19.36;54.34
72498;BME280;60522;52.536;5.702;2022-11-02T01:09:30;101367.78;;;19.37;54.26
72498;BME280;60522;52.536;5.702;2022-11-02T01:11:56;101369.38;;;19.38;54.35
72498;BME280;60522;52.536;5.702;2022-11-02T01:14:21;101368.94;;;19.36;54.27
72498;BME280;60522;52.536;5.702;2022-11-02T01:16:47;101349.66;;;19.29;54.35
72498;BME280;60522;52.536;5.702;2022-11-02T01:19:13;101375.19;;;19.36;54.43
72498;BME280;60522;52.536;5.702;2022-11-02T01:21:38;101400.88;;;19.35;54.38
72498;BME280;60522;52.536;5.702;2022-11-02T01:24:04;101392.34;;;19.37;54.40
72498;BME280;60522;52.536;5.702;2022-11-02T01:26:30;101377.13;;;19.36;54.45
72498;BME280;60522;52.536;5.702;2022-11-02T01:28:55;101360.31;;;19.34;54.30
72498;BME280;60522;52.536;5.702;2022-11-02T01:31:21;101359.19;;;19.35;54.20
72498;BME280;60522;52.536;5.702;2022-11-02T01:33:46;101366.56;;;19.34;54.06
72498;BME280;60522;52.536;5.702;2022-11-02T01:36:14;101359.44;;;19.30;54.40
72498;BME280;60522;52.536;5.702;2022-11-02T01:38:39;101350.91;;;19.31;54.07
72498;BME280;60522;52.536;5.702;2022-11-02T01:41:06;101333.84;;;19.34;53.98
72498;BME280;60522;52.536;5.702;2022-11-02T01:43:34;101307.16;;;19.28;53.80
72498;BME280;60522;52.536;5.702;2022-11-02T01:46:12;101325.19;;;19.32;53.53
72498;BME280;60522;52.536;5.702;2022-11-02T01:51:12;101337.97;;;19.28;53.37
72498;BME280;60522;52.536;5.702;2022-11-02T01:53:42;101362.25;;;19.33;53.23
72498;BME280;60522;52.536;5.702;2022-11-02T01:56:11;101351.97;;;19.27;53.30
72498;BME280;60522;52.536;5.702;2022-11-02T01:58:39;101362.16;;;19.30;53.37
72498;BME280;60522;52.536;5.702;2022-11-02T02:01:05;101370.34;;;19.30;53.45
72498;BME280;60522;52.536;5.702;2022-11-02T02:03:31;101356.72;;;19.30;53.34
72498;BME280;60522;52.536;5.702;2022-11-02T02:06:06;101340.69;;;19.28;52.76
72498;BME280;60522;52.536;5.702;2022-11-02T02:08:35;101330.72;;;19.20;53.43
72498;BME280;60522;52.536;5.702;2022-11-02T02:11:01;101360.47;;;19.25;53.42
72498;BME280;60522;52.536;5.702;2022-11-02T02:13:27;101354.22;;;19.25;53.40
72498;BME280;60522;52.536;5.702;2022-11-02T02:16:10;101353.09;;;19.26;52.65
72498;BME280;60522;52.536;5.702;2022-11-02T02:18:48;101349.91;;;19.23;52.91
72498;BME280;60522;52.536;5.702;2022-11-02T02:26:57;101338.56;;;19.21;52.71
72498;BME280;60522;52.536;5.702;2022-11-02T02:29:46;101332.56;;;19.16;52.79
72498;BME280;60522;52.536;5.702;2022-11-02T02:32:19;101336.53;;;19.18;53.02
72498;BME280;60522;52.536;5.702;2022-11-02T02:34:58;101327.44;;;19.14;52.77
72498;BME280;60522;52.536;5.702;2022-11-02T02:37:40;101348.22;;;19.19;52.66
72498;BME280;60522;52.536;5.702;2022-11-02T02:40:14;101343.03;;;19.14;52.62
72498;BME280;60522;52.536;5.702;2022-11-02T02:42:51;101331.00;;;19.15;52.54
72498;BME280;60522;52.536;5.702;2022-11-02T02:45:24;101333.25;;;19.13;52.32
72498;BME280;60522;52.536;5.702;2022-11-02T02:47:59;101338.00;;;19.16;52.38
72498;BME280;60522;52.536;5.702;2022-11-02T02:50:34;101350.84;;;19.15;52.18
72498;BME280;60522;52.536;5.702;2022-11-02T02:53:03;101352.44;;;19.16;52.85
72498;BME280;60522;52.536;5.702;2022-11-02T02:55:33;101341.00;;;19.11;52.85
72498;BME280;60522;52.536;5.702;2022-11-02T02:58:01;101347.69;;;19.13;52.76
72498;BME280;60522;52.536;5.702;2022-11-02T03:00:29;101340.09;;;19.07;52.52
72498;BME280;60522;52.536;5.702;2022-11-02T03:02:57;101354.97;;;19.09;52.72
72498;BME280;60522;52.536;5.702;2022-11-02T03:05:33;101353.03;;;19.10;51.98
72498;BME280;60522;52.536;5.702;2022-11-02T03:08:04;101340.53;;;19.09;52.40
72498;BME280;60522;52.536;5.702;2022-11-02T03:15:58;101319.19;;;19.11;52.23
72498;BME280;60522;52.536;5.702;2022-11-02T03:18:37;101319.19;;;19.11;51.68
72498;BME280;60522;52.536;5.702;2022-11-02T03:21:27;101320.13;;;19.02;51.61
72498;BME280;60522;52.536;5.702;2022-11-02T03:24:19;101329.97;;;19.07;51.61
72498;BME280;60522;52.536;5.702;2022-11-02T03:26:55;101333.50;;;19.08;52.91
72498;BME280;60522;52.536;5.702;2022-11-02T03:29:28;101334.31;;;19.08;52.25
72498;BME280;60522;52.536;5.702;2022-11-02T03:32:05;101347.03;;;19.04;52.27
72498;BME280;60522;52.536;5.702;2022-11-02T03:34:38;101349.41;;;19.05;52.21
72498;BME280;60522;52.536;5.702;2022-11-02T03:39:45;101354.44;;;19.03;52.49
72498;BME280;60522;52.536;5.702;2022-11-02T03:42:17;101346.69;;;19.05;52.77
72498;BME280;60522;52.536;5.702;2022-11-02T03:44:44;101344.31;;;19.04;53.05
72498;BME280;60522;52.536;5.702;2022-11-02T03:47:12;101328.75;;;19.04;52.83
72498;BME280;60522;52.536;5.702;2022-11-02T03:49:41;101337.72;;;19.05;52.83
72498;BME280;60522;52.536;5.702;2022-11-02T03:52:10;101340.72;;;19.00;52.76
72498;BME280;60522;52.536;5.702;2022-11-02T03:54:53;101347.97;;;18.96;52.47
72498;BME280;60522;52.536;5.702;2022-11-02T03:57:27;101365.69;;;19.02;52.71
72498;BME280;60522;52.536;5.702;2022-11-02T04:00:08;101368.41;;;19.02;52.44
72498;BME280;60522;52.536;5.702;2022-11-02T04:02:36;101365.13;;;18.96;52.83
72498;BME280;60522;52.536;5.702;2022-11-02T04:05:03;101357.28;;;18.95;53.10
72498;BME280;60522;52.536;5.702;2022-11-02T04:07:31;101376.13;;;19.00;53.00
72498;BME280;60522;52.536;5.702;2022-11-02T04:10:17;101373.84;;;19.02;52.93
72498;BME280;60522;52.536;5.702;2022-11-02T04:12:43;101384.75;;;19.02;53.12
72498;BME280;60522;52.536;5.702;2022-11-02T04:15:26;101371.38;;;18.97;53.07
72498;BME280;60522;52.536;5.702;2022-11-02T04:17:52;101381.03;;;18.94;53.03
72498;BME280;60522;52.536;5.702;2022-11-02T04:20:36;101396.25;;;18.95;53.12
72498;BME280;60522;52.536;5.702;2022-11-02T04:23:01;101390.13;;;18.98;53.18
72498;BME280;60522;52.536;5.702;2022-11-02T04:25:45;101397.94;;;19.00;53.21
72498;BME280;60522;52.536;5.702;2022-11-02T04:28:10;101404.97;;;19.01;53.23
72498;BME280;60522;52.536;5.702;2022-11-02T04:30:36;101399.34;;;18.94;53.39
72498;BME280;60522;52.536;5.702;2022-11-02T04:33:01;101415.88;;;19.01;53.23
72498;BME280;60522;52.536;5.702;2022-11-02T04:35:45;101423.72;;;19.02;53.41
72498;BME280;60522;52.536;5.702;2022-11-02T04:38:11;101433.81;;;19.02;53.16
72498;BME280;60522;52.536;5.702;2022-11-02T04:40:55;101436.13;;;19.00;53.26
72498;BME280;60522;52.536;5.702;2022-11-02T04:43:40;101446.09;;;18.96;53.43
72498;BME280;60522;52.536;5.702;2022-11-02T04:46:05;101459.84;;;18.99;53.28
72498;BME280;60522;52.536;5.702;2022-11-02T04:48:31;101454.72;;;18.98;53.44
72498;BME280;60522;52.536;5.702;2022-11-02T04:50:57;101464.84;;;18.97;53.32
72498;BME280;60522;52.536;5.702;2022-11-02T04:53:22;101457.09;;;18.99;53.49
72498;BME280;60522;52.536;5.702;2022-11-02T04:55:48;101458.59;;;18.97;53.55
72498;BME280;60522;52.536;5.702;2022-11-02T04:58:13;101465.97;;;18.96;53.48
72498;BME280;60522;52.536;5.702;2022-11-02T05:00:38;101463.72;;;18.98;53.39
72498;BME280;60522;52.536;5.702;2022-11-02T05:03:04;101468.34;;;18.98;53.48
72498;BME280;60522;52.536;5.702;2022-11-02T05:05:30;101469.03;;;18.95;53.49
72498;BME280;60522;52.536;5.702;2022-11-02T05:07:55;101468.69;;;18.96;53.67
72498;BME280;60522;52.536;5.702;2022-11-02T05:10:20;101473.81;;;18.98;53.64
72498;BME280;60522;52.536;5.702;2022-11-02T05:12:46;101469.84;;;18.95;53.60
72498;BME280;60522;52.536;5.702;2022-11-02T05:15:11;101472.59;;;18.95;53.53
72498;BME280;60522;52.536;5.702;2022-11-02T05:17:37;101486.22;;;18.95;53.58
72498;BME280;60522;52.536;5.702;2022-11-02T05:20:02;101480.28;;;18.93;53.61
72498;BME280;60522;52.536;5.702;2022-11-02T05:22:29;101497.56;;;18.97;53.58
72498;BME280;60522;52.536;5.702;2022-11-02T05:24:55;101499.84;;;18.95;53.78
72498;BME280;60522;52.536;5.702;2022-11-02T05:27:20;101497.91;;;18.96;53.71
72498;BME280;60522;52.536;5.702;2022-11-02T05:29:45;101497.13;;;18.95;53.50
72498;BME280;60522;52.536;5.702;2022-11-02T05:32:11;101507.19;;;18.95;53.65
72498;BME280;60522;52.536;5.702;2022-11-02T05:34:36;101505.06;;;18.88;53.68
72498;BME280;60522;52.536;5.702;2022-11-02T05:37:02;101504.03;;;18.93;53.68
72498;BME280;60522;52.536;5.702;2022-11-02T05:39:27;101509.50;;;18.93;53.80
72498;BME280;60522;52.536;5.702;2022-11-02T05:41:53;101515.28;;;18.91;53.73
72498;BME280;60522;52.536;5.702;2022-11-02T05:44:18;101528.91;;;18.91;53.88
72498;BME280;60522;52.536;5.702;2022-11-02T05:46:43;101529.69;;;18.92;53.93
72498;BME280;60522;52.536;5.702;2022-11-02T05:49:09;101543.31;;;18.92;53.82
72498;BME280;60522;52.536;5.702;2022-11-02T05:51:34;101546.06;;;18.92;53.93
72498;BME280;60522;52.536;5.702;2022-11-02T05:53:59;101545.59;;;18.90;53.85
72498;BME280;60522;52.536;5.702;2022-11-02T05:56:25;101551.50;;;18.92;53.84
72498;BME280;60522;52.536;5.702;2022-11-02T05:58:53;101536.50;;;18.85;53.96
72498;BME280;60522;52.536;5.702;2022-11-02T06:01:18;101558.88;;;18.91;53.92
72498;BME280;60522;52.536;5.702;2022-11-02T06:03:43;101555.34;;;18.91;53.92
72498;BME280;60522;52.536;5.702;2022-11-02T06:06:09;101555.69;;;18.89;53.78
72498;BME280;60522;52.536;5.702;2022-11-02T06:08:36;101581.13;;;18.93;53.92
72498;BME280;60522;52.536;5.702;2022-11-02T06:11:08;101559.09;;;18.86;53.59
72498;BME280;60522;52.536;5.702;2022-11-02T06:13:33;101572.53;;;18.91;53.81
72498;BME280;60522;52.536;5.702;2022-11-02T06:16:00;101582.75;;;18.94;53.98
72498;BME280;60522;52.536;5.702;2022-11-02T06:18:25;101577.63;;;18.93;54.08
72498;BME280;60522;52.536;5.702;2022-11-02T06:20:51;101578.88;;;18.95;53.86
72498;BME280;60522;52.536;5.702;2022-11-02T06:23:16;101578.19;;;18.86;54.28
72498;BME280;60522;52.536;5.702;2022-11-02T06:25:43;101594.84;;;18.72;54.50
72498;BME280;60522;52.536;5.702;2022-11-02T06:28:08;101593.69;;;18.61;54.76
72498;BME280;60522;52.536;5.702;2022-11-02T06:30:34;101596.38;;;18.48;54.79
72498;BME280;60522;52.536;5.702;2022-11-02T06:32:59;101612.94;;;18.43;54.96
72498;BME280;60522;52.536;5.702;2022-11-02T06:35:24;101605.06;;;18.29;55.02
72498;BME280;60522;52.536;5.702;2022-11-02T06:37:50;101626.84;;;18.29;55.13
72498;BME280;60522;52.536;5.702;2022-11-02T06:40:15;101617.75;;;18.25;55.18
72498;BME280;60522;52.536;5.702;2022-11-02T06:42:41;101634.28;;;18.20;55.21
72498;BME280;60522;52.536;5.702;2022-11-02T06:45:07;101628.47;;;18.09;55.18
72498;BME280;60522;52.536;5.702;2022-11-02T06:47:34;101640.28;;;18.13;55.11
72498;BME280;60522;52.536;5.702;2022-11-02T06:50:00;101639.34;;;18.09;55.22
72498;BME280;60522;52.536;5.702;2022-11-02T06:52:27;101645.66;;;18.01;55.16
72498;BME280;60522;52.536;5.702;2022-11-02T06:54:52;101668.03;;;18.07;55.11
72498;BME280;60522;52.536;5.702;2022-11-02T06:57:18;101661.00;;;18.06;55.38
72498;BME280;60522;52.536;5.702;2022-11-02T06:59:44;101676.53;;;18.05;55.52
72498;BME280;60522;52.536;5.702;2022-11-02T07:02:09;101672.75;;;17.97;55.56
72498;BME280;60522;52.536;5.702;2022-11-02T07:04:35;101683.78;;;18.01;55.57
72498;BME280;60522;52.536;5.702;2022-11-02T07:07:00;101706.66;;;18.00;55.37
72498;BME280;60522;52.536;5.702;2022-11-02T07:09:25;101706.66;;;18.00;55.43
72498;BME280;60522;52.536;5.702;2022-11-02T07:11:51;101707.66;;;17.95;55.34
72498;BME280;60522;52.536;5.702;2022-11-02T07:14:16;101705.59;;;17.92;55.46
72498;BME280;60522;52.536;5.702;2022-11-02T07:16:42;101725.00;;;17.91;55.58
72498;BME280;60522;52.536;5.702;2022-11-02T07:19:08;101723.38;;;17.90;55.29
72498;BME280;60522;52.536;5.702;2022-11-02T07:21:33;101734.56;;;17.88;55.29
72498;BME280;60522;52.536;5.702;2022-11-02T07:23:58;101748.84;;;17.85;55.20
72498;BME280;60522;52.536;5.702;2022-11-02T07:26:24;101752.22;;;17.82;55.34
72498;BME280;60522;52.536;5.702;2022-11-02T07:28:50;101759.25;;;17.83;55.09
72498;BME280;60522;52.536;5.702;2022-11-02T07:31:16;101769.34;;;17.82;55.19
72498;BME280;60522;52.536;5.702;2022-11-02T07:33:41;101773.19;;;17.81;55.10
72498;BME280;60522;52.536;5.702;2022-11-02T07:36:07;101764.25;;;17.72;55.10
72498;BME280;60522;52.536;5.702;2022-11-02T07:38:32;101784.41;;;17.80;55.20
72498;BME280;60522;52.536;5.702;2022-11-02T07:40:57;101774.03;;;17.73;54.88
72498;BME280;60522;52.536;5.702;2022-11-02T07:43:23;101789.03;;;17.79;54.72
72498;BME280;60522;52.536;5.702;2022-11-02T07:45:48;101795.63;;;17.78;54.62
72498;BME280;60522;52.536;5.702;2022-11-02T07:48:13;101785.69;;;17.74;54.63
72498;BME280;60522;52.536;5.702;2022-11-02T07:50:39;101804.69;;;17.82;54.75
72498;BME280;60522;52.536;5.702;2022-11-02T07:53:04;101807.91;;;17.85;54.54
72498;BME280;60522;52.536;5.702;2022-11-02T07:55:31;101806.97;;;17.89;54.32
72498;BME280;60522;52.536;5.702;2022-11-02T07:58:04;101809.50;;;17.86;53.70
72498;BME280;60522;52.536;5.702;2022-11-02T08:00:36;101813.97;;;17.90;53.97
72498;BME280;60522;52.536;5.702;2022-11-02T08:03:03;101816.38;;;17.92;54.18
72498;BME280;60522;52.536;5.702;2022-11-02T08:05:30;101832.25;;;17.90;53.94
72498;BME280;60522;52.536;5.702;2022-11-02T08:07:59;101826.47;;;17.91;53.94
72498;BME280;60522;52.536;5.702;2022-11-02T08:10:25;101824.38;;;17.88;53.73
72498;BME280;60522;52.536;5.702;2022-11-02T08:12:51;101834.13;;;17.98;53.72
72498;BME280;60522;52.536;5.702;2022-11-02T08:15:16;101832.00;;;18.04;53.59
72498;BME280;60522;52.536;5.702;2022-11-02T08:17:42;101840.34;;;18.07;53.67
72498;BME280;60522;52.536;5.702;2022-11-02T08:20:08;101826.22;;;18.05;53.44
72498;BME280;60522;52.536;5.702;2022-11-02T08:22:38;101817.91;;;18.10;52.94
72498;BME280;60522;52.536;5.702;2022-11-02T08:25:04;101826.03;;;18.19;53.30
72498;BME280;60522;52.536;5.702;2022-11-02T08:27:30;101835.91;;;18.24;53.21
72498;BME280;60522;52.536;5.702;2022-11-02T08:29:55;101843.09;;;18.28;53.02
72498;BME280;60522;52.536;5.702;2022-11-02T08:32:21;101849.00;;;18.30;53.17
72498;BME280;60522;52.536;5.702;2022-11-02T08:34:46;101855.06;;;18.36;53.07
72498;BME280;60522;52.536;5.702;2022-11-02T08:37:11;101861.91;;;18.42;52.93
72498;BME280;60522;52.536;5.702;2022-11-02T08:39:37;101854.41;;;18.39;52.78
72498;BME280;60522;52.536;5.702;2022-11-02T08:42:02;101864.47;;;18.47;52.51
72498;BME280;60522;52.536;5.702;2022-11-02T08:44:28;101874.38;;;18.52;52.54
72498;BME280;60522;52.536;5.702;2022-11-02T08:46:54;101872.56;;;18.56;52.39
72498;BME280;60522;52.536;5.702;2022-11-02T08:49:19;101877.34;;;18.59;52.69
72498;BME280;60522;52.536;5.702;2022-11-02T08:51:45;101877.03;;;18.61;52.16
72498;BME280;60522;52.536;5.702;2022-11-02T08:54:11;101869.84;;;18.56;52.38
72498;BME280;60522;52.536;5.702;2022-11-02T08:56:36;101892.41;;;18.65;52.26
72498;BME280;60522;52.536;5.702;2022-11-02T08:59:01;101878.63;;;18.62;52.13
72498;BME280;60522;52.536;5.702;2022-11-02T09:01:27;101896.19;;;18.73;52.18
72498;BME280;60522;52.536;5.702;2022-11-02T09:03:52;101897.13;;;18.77;52.09
72498;BME280;60522;52.536;5.702;2022-11-02T09:06:18;101897.59;;;18.79;52.08
72498;BME280;60522;52.536;5.702;2022-11-02T09:08:43;101896.63;;;18.75;51.90
72498;BME280;60522;52.536;5.702;2022-11-02T09:11:09;101898.84;;;18.82;52.04
72498;BME280;60522;52.536;5.702;2022-11-02T09:13:34;101897.38;;;18.84;51.92
72498;BME280;60522;52.536;5.702;2022-11-02T09:15:59;101909.25;;;18.88;51.75
72498;BME280;60522;52.536;5.702;2022-11-02T09:18:25;101908.13;;;18.90;51.65
72498;BME280;60522;52.536;5.702;2022-11-02T09:20:51;101914.19;;;18.95;51.74
72498;BME280;60522;52.536;5.702;2022-11-02T09:23:18;101913.25;;;18.91;51.70
72498;BME280;60522;52.536;5.702;2022-11-02T09:25:44;101920.88;;;18.98;51.70
72498;BME280;60522;52.536;5.702;2022-11-02T09:28:10;101928.88;;;19.03;51.61
72498;BME280;60522;52.536;5.702;2022-11-02T09:30:35;101938.28;;;19.05;51.50
72498;BME280;60522;52.536;5.702;2022-11-02T09:33:03;101933.84;;;19.01;51.25
72498;BME280;60522;52.536;5.702;2022-11-02T09:35:32;101919.41;;;19.00;51.18
72498;BME280;60522;52.536;5.702;2022-11-02T09:37:58;101933.78;;;19.10;51.02
72498;BME280;60522;52.536;5.702;2022-11-02T09:40:26;101943.91;;;19.09;50.94
72498;BME280;60522;52.536;5.702;2022-11-02T09:43:04;101945.97;;;19.12;49.89
72498;BME280;60522;52.536;5.702;2022-11-02T09:45:45;101956.97;;;19.16;49.93
72498;BME280;60522;52.536;5.702;2022-11-02T09:48:18;101947.91;;;19.12;49.94
72498;BME280;60522;52.536;5.702;2022-11-02T09:50:52;101952.47;;;19.20;49.90
72498;BME280;60522;52.536;5.702;2022-11-02T09:53:26;101957.94;;;19.20;49.78
72498;BME280;60522;52.536;5.702;2022-11-02T09:55:56;101970.44;;;19.21;50.18
72498;BME280;60522;52.536;5.702;2022-11-02T09:58:30;101970.44;;;19.21;49.70
72498;BME280;60522;52.536;5.702;2022-11-02T10:01:02;101975.88;;;19.21;50.04
72498;BME280;60522;52.536;5.702;2022-11-02T10:03:46;101967.09;;;19.15;49.92
72498;BME280;60522;52.536;5.702;2022-11-02T10:06:20;101983.25;;;19.20;50.18
72498;BME280;60522;52.536;5.702;2022-11-02T10:09:01;101983.25;;;19.20;49.13
72498;BME280;60522;52.536;5.702;2022-11-02T10:14:23;102001.88;;;19.18;49.19
72498;BME280;60522;52.536;5.702;2022-11-02T10:16:59;102011.69;;;19.19;49.34
72498;BME280;60522;52.536;5.702;2022-11-02T10:19:29;102021.09;;;19.22;50.59
72498;BME280;60522;52.536;5.702;2022-11-02T10:21:57;102012.47;;;19.20;50.44
72498;BME280;60522;52.536;5.702;2022-11-02T10:27:09;102003.50;;;19.19;48.88
72498;BME280;60522;52.536;5.702;2022-11-02T10:30:03;102005.06;;;19.20;48.38
72498;BME280;60522;52.536;5.702;2022-11-02T10:32:33;102006.34;;;19.23;50.41
72498;BME280;60522;52.536;5.702;2022-11-02T10:35:02;102011.47;;;19.25;49.95
72498;BME280;60522;52.536;5.702;2022-11-02T10:37:44;102010.53;;;19.20;49.59
72498;BME280;60522;52.536;5.702;2022-11-02T10:43:17;102022.00;;;19.35;50.28
72498;BME280;60522;52.536;5.702;2022-11-02T10:49:04;102036.91;;;19.37;49.85
72498;BME280;60522;52.536;5.702;2022-11-02T10:51:33;102040.09;;;19.39;50.92
72498;BME280;60522;52.536;5.702;2022-11-02T10:53:58;102030.78;;;19.40;50.83
72498;BME280;60522;52.536;5.702;2022-11-02T10:56:29;102034.28;;;19.41;50.22
72498;BME280;60522;52.536;5.702;2022-11-02T11:01:24;102029.78;;;19.45;50.96
72498;BME280;60522;52.536;5.702;2022-11-02T11:04:01;102037.19;;;19.45;49.77
72498;BME280;60522;52.536;5.702;2022-11-02T11:06:34;102035.22;;;19.45;49.72
72498;BME280;60522;52.536;5.702;2022-11-02T11:11:57;102040.69;;;19.45;49.46
72498;BME280;60522;52.536;5.702;2022-11-02T11:14:25;102034.78;;;19.43;50.26
72498;BME280;60522;52.536;5.702;2022-11-02T11:16:54;102041.16;;;19.47;50.11
72498;BME280;60522;52.536;5.702;2022-11-02T11:19:35;102037.19;;;19.45;49.03
72498;BME280;60522;52.536;5.702;2022-11-02T11:22:02;102020.19;;;19.39;50.21
72498;BME280;60522;52.536;5.702;2022-11-02T11:24:32;102029.97;;;19.40;49.89
72498;BME280;60522;52.536;5.702;2022-11-02T11:27:21;102042.97;;;19.43;48.07
72498;BME280;60522;52.536;5.702;2022-11-02T11:29:53;102032.69;;;19.40;49.56
72498;BME280;60522;52.536;5.702;2022-11-02T11:32:25;102030.63;;;19.37;48.87
72498;BME280;60522;52.536;5.702;2022-11-02T11:37:26;102038.69;;;19.33;49.58
72498;BME280;60522;52.536;5.702;2022-11-02T11:39:56;102030.84;;;19.32;48.85
72498;BME280;60522;52.536;5.702;2022-11-02T11:42:25;102029.44;;;19.26;49.03
72498;BME280;60522;52.536;5.702;2022-11-02T11:45:06;102038.06;;;19.28;47.73
72498;BME280;60522;52.536;5.702;2022-11-02T11:47:38;102035.69;;;19.26;47.87
72498;BME280;60522;52.536;5.702;2022-11-02T11:50:13;102037.63;;;19.26;48.73
72498;BME280;60522;52.536;5.702;2022-11-02T11:52:39;102028.50;;;19.21;49.43
72498;BME280;60522;52.536;5.702;2022-11-02T11:55:25;102042.59;;;19.23;46.93
72498;BME280;60522;52.536;5.702;2022-11-02T11:58:27;102039.06;;;19.23;47.12
72498;BME280;60522;52.536;5.702;2022-11-02T12:03:57;102038.28;;;19.22;47.36
72498;BME280;60522;52.536;5.702;2022-11-02T12:14:47;102019.19;;;19.22;47.61
72498;BME280;60522;52.536;5.702;2022-11-02T12:17:49;102021.94;;;19.22;47.58
72498;BME280;60522;52.536;5.702;2022-11-02T12:23:18;102023.50;;;19.23;48.07
72498;BME280;60522;52.536;5.702;2022-11-02T12:26:03;102015.31;;;19.23;48.26
72498;BME280;60522;52.536;5.702;2022-11-02T12:31:43;102019.31;;;19.26;48.64
72498;BME280;60522;52.536;5.702;2022-11-02T12:34:32;102021.25;;;19.26;48.60
72498;BME280;60522;52.536;5.702;2022-11-02T12:37:12;102019.66;;;19.25;48.57
72498;BME280;60522;52.536;5.702;2022-11-02T12:45:34;102016.47;;;19.22;48.58
72498;BME280;60522;52.536;5.702;2022-11-02T12:48:04;102012.91;;;19.22;49.89
72498;BME280;60522;52.536;5.702;2022-11-02T12:51:31;102016.94;;;19.25;48.48
72498;BME280;60522;52.536;5.702;2022-11-02T12:53:48;102005.91;;;19.21;48.68
72498;BME280;60522;52.536;5.702;2022-11-02T12:56:21;102004.28;;;19.20;49.00
72498;BME280;60522;52.536;5.702;2022-11-02T12:58:50;102009.41;;;19.21;50.14
72498;BME280;60522;52.536;5.702;2022-11-02T13:03:56;102011.34;;;19.21;49.56
72498;BME280;60522;52.536;5.702;2022-11-02T13:06:27;102011.69;;;19.19;49.86
72498;BME280;60522;52.536;5.702;2022-11-02T13:09:00;102019.53;;;19.21;50.25
72498;BME280;60522;52.536;5.702;2022-11-02T13:11:44;102015.31;;;19.23;49.05
72498;BME280;60522;52.536;5.702;2022-11-02T13:14:16;102019.19;;;19.22;49.52
72498;BME280;60522;52.536;5.702;2022-11-02T13:16:48;102014.41;;;19.19;49.32
72498;BME280;60522;52.536;5.702;2022-11-02T13:19:19;102012.81;;;19.18;49.40
72498;BME280;60522;52.536;5.702;2022-11-02T13:21:52;102017.13;;;19.19;49.35
72498;BME280;60522;52.536;5.702;2022-11-02T13:24:22;102004.63;;;19.18;49.52
72498;BME280;60522;52.536;5.702;2022-11-02T13:26:51;102009.63;;;19.16;50.11
72498;BME280;60522;52.536;5.702;2022-11-02T13:29:19;102008.13;;;19.19;49.96
72498;BME280;60522;52.536;5.702;2022-11-02T13:31:52;102014.75;;;19.18;49.05
72498;BME280;60522;52.536;5.702;2022-11-02T13:34:39;101997.75;;;19.12;48.58
72498;BME280;60522;52.536;5.702;2022-11-02T13:37:10;102002.88;;;19.14;49.49
72498;BME280;60522;52.536;5.702;2022-11-02T13:39:52;101996.97;;;19.12;48.70
72498;BME280;60522;52.536;5.702;2022-11-02T13:47:50;101994.38;;;19.15;49.22
72498;BME280;60522;52.536;5.702;2022-11-02T13:50:23;102001.88;;;19.18;49.56
72498;BME280;60522;52.536;5.702;2022-11-02T13:53:04;102012.00;;;19.18;48.55
72498;BME280;60522;52.536;5.702;2022-11-02T13:55:43;102000.94;;;19.14;49.21
72498;BME280;60522;52.536;5.702;2022-11-02T13:58:24;101993.44;;;19.11;48.80
72498;BME280;60522;52.536;5.702;2022-11-02T14:00:52;101993.44;;;19.11;49.77
72498;BME280;60522;52.536;5.702;2022-11-02T14:04:01;101990.72;;;19.11;48.30
72498;BME280;60522;52.536;5.702;2022-11-02T14:06:27;101987.19;;;19.11;49.77
72498;BME280;60522;52.536;5.702;2022-11-02T14:09:03;101994.59;;;19.10;48.60
72498;BME280;60522;52.536;5.702;2022-11-02T14:11:51;101992.97;;;19.09;48.31